Time;durP1;ratioP1;P1;durP2;ratioP2;P2;SDS_P1;SDS_P2;PMS_P1;PMS_P2;Temp;Humidity;BMP_temperature;BMP_pressure;BME280_temperature;BME280_humidity;BME280_pressure;Samples;Min_cycle;Max_cycle;Signal;HPM_P1;HPM_P2
2023/10/14 00:00:40;;;;;;;;;0.00;0.00;;;;;21.10;100.00;100687.31;5036245;28;45552;-76
2023/10/14 00:03:26;;;;;;;;;0.00;0.00;;;;;21.01;100.00;100693.00;5035415;28;46197;-76
2023/10/14 00:05:51;;;;;;;;;0.00;0.00;;;;;20.87;100.00;100701.50;5035948;28;45661;-76
2023/10/14 00:08:16;;;;;;;;;0.00;0.00;;;;;20.75;100.00;100715.34;5033139;28;45445;-77
2023/10/14 00:10:43;;;;;;;;;0.33;0.00;;;;;20.58;100.00;100702.47;5035854;28;45221;-76
2023/10/14 00:13:12;;;;;;;;;1.00;0.00;;;;;20.45;100.00;100718.03;5035410;28;46500;-74
2023/10/14 00:15:39;;;;;;;;;0.00;0.00;;;;;20.32;100.00;100727.41;5035297;28;45358;-75
2023/10/14 00:18:07;;;;;;;;;0.67;0.00;;;;;20.32;100.00;100732.75;5035415;28;45564;-75
2023/10/14 00:20:36;;;;;;;;;2.00;0.33;;;;;20.28;100.00;100739.13;5035823;28;45345;-75
2023/10/14 00:23:04;;;;;;;;;1.67;1.00;;;;;20.27;100.00;100746.31;5035262;28;45590;-76
2023/10/14 00:25:32;;;;;;;;;0.00;0.00;;;;;20.19;100.00;100764.44;5034455;28;57923;-76
2023/10/14 00:27:58;;;;;;;;;0.00;0.00;;;;;20.20;100.00;100784.09;5033867;28;45537;-75
2023/10/14 00:30:26;;;;;;;;;1.00;0.00;;;;;20.18;100.00;100781.44;5035741;28;45395;-75
2023/10/14 00:32:52;;;;;;;;;1.67;0.00;;;;;20.05;100.00;100798.81;5035487;28;45852;-75
2023/10/14 00:35:19;;;;;;;;;0.00;0.00;;;;;19.89;100.00;100809.97;5035110;28;57533;-75
2023/10/14 00:37:44;;;;;;;;;2.00;0.00;;;;;19.73;100.00;100827.38;5035626;28;45291;-75
2023/10/14 00:40:22;;;;;;;;;0.00;0.00;;;;;19.63;100.00;100839.25;5035005;28;51095;-76
2023/10/14 00:42:49;;;;;;;;;0.00;0.00;;;;;19.47;100.00;100837.84;5034598;28;46781;-76
2023/10/14 00:45:14;;;;;;;;;0.33;0.00;;;;;19.35;100.00;100850.63;5034420;28;45347;-74
2023/10/14 00:47:40;;;;;;;;;0.00;0.00;;;;;19.28;100.00;100859.75;5034689;28;57059;-76
2023/10/14 00:52:54;;;;;;;;;1.00;0.00;;;;;19.17;100.00;100875.16;5027619;28;46558;-75
2023/10/14 00:55:24;;;;;;;;;0.00;0.00;;;;;19.16;100.00;100878.75;5034629;28;45394;-74
2023/10/14 00:57:54;;;;;;;;;0.00;0.00;;;;;19.17;100.00;100896.59;5038830;28;45340;-76
2023/10/14 01:00:33;;;;;;;;;1.00;0.00;;;;;19.10;100.00;100886.94;5036566;28;45439;-75
2023/10/14 01:03:01;;;;;;;;;1.00;0.00;;;;;19.09;100.00;100890.53;5037709;28;47527;-75
2023/10/14 01:05:29;;;;;;;;;0.67;0.00;;;;;19.07;100.00;100901.28;5038014;28;45450;-76
2023/10/14 01:07:58;;;;;;;;;1.00;1.00;;;;;19.05;100.00;100900.44;5038194;28;45383;-74
2023/10/14 01:10:24;;;;;;;;;1.33;0.00;;;;;19.00;100.00;100923.72;5036632;28;45273;-74
2023/10/14 01:12:54;;;;;;;;;2.00;0.00;;;;;19.03;100.00;100939.75;5038173;28;45709;-75
2023/10/14 01:15:20;;;;;;;;;3.00;0.00;;;;;18.96;100.00;100931.84;5037758;28;45411;-75
2023/10/14 01:17:46;;;;;;;;;1.00;1.00;;;;;18.79;100.00;100935.78;5037933;28;45584;-74
2023/10/14 01:22:44;;;;;;;;;1.00;1.00;;;;;18.64;100.00;100945.88;5037589;28;45528;-75
2023/10/14 01:25:14;;;;;;;;;1.33;0.67;;;;;18.58;100.00;100954.91;5036615;28;45594;-75
2023/10/14 01:27:43;;;;;;;;;3.00;0.00;;;;;18.55;100.00;100968.38;5036710;28;45361;-74
2023/10/14 01:30:18;;;;;;;;;2.00;0.00;;;;;18.43;100.00;100965.91;5038314;28;45679;-74
2023/10/14 01:37:58;;;;;;;;;2.00;0.33;;;;;18.32;100.00;100988.41;5038218;28;45456;-76
2023/10/14 01:40:48;;;;;;;;;1.33;0.00;;;;;18.22;100.00;100986.81;5036769;28;45415;-74
2023/10/14 01:43:15;;;;;;;;;0.67;0.00;;;;;18.25;100.00;100991.19;5031344;28;46726;-74
2023/10/14 01:46:00;;;;;;;;;2.00;0.67;;;;;18.18;100.00;100997.56;5037337;28;45477;-74
2023/10/14 01:48:38;;;;;;;;;0.33;0.00;;;;;18.08;100.00;101010.22;5037461;28;45690;-74
2023/10/14 01:51:04;;;;;;;;;0.00;0.00;;;;;18.06;100.00;101014.72;5037768;28;45484;-73
2023/10/14 01:53:35;;;;;;;;;0.33;0.33;;;;;18.01;100.00;101028.16;5036945;28;46604;-76
2023/10/14 01:56:02;;;;;;;;;2.33;1.00;;;;;18.04;100.00;101043.22;5036937;28;45247;-74
2023/10/14 01:58:36;;;;;;;;;2.00;1.00;;;;;17.97;100.00;101055.81;5037285;28;45366;-74
2023/10/14 02:03:43;;;;;;;;;0.00;0.00;;;;;17.89;100.00;101072.84;5037558;28;45754;-74
2023/10/14 02:06:16;;;;;;;;;3.00;2.00;;;;;17.89;100.00;101076.41;5036901;28;45359;-74
2023/10/14 02:08:45;;;;;;;;;3.00;0.00;;;;;17.86;100.00;101083.59;5033141;28;45326;-74
2023/10/14 02:11:10;;;;;;;;;2.00;0.00;;;;;17.87;100.00;101088.03;5037216;28;45308;-76
2023/10/14 02:13:36;;;;;;;;;3.67;1.00;;;;;17.82;100.00;101087.22;5037287;28;46420;-75
2023/10/14 02:16:06;;;;;;;;;0.00;0.00;;;;;17.86;100.00;101078.25;5036609;28;59870;-74
2023/10/14 02:18:36;;;;;;;;;0.00;0.00;;;;;17.88;100.00;101079.13;5037311;28;45454;-74
2023/10/14 02:21:05;;;;;;;;;1.33;0.33;;;;;17.80;100.00;101058.75;5037167;28;45557;-74
2023/10/14 02:23:45;;;;;;;;;0.33;0.33;;;;;17.81;100.00;101062.31;5037125;28;47735;-74
2023/10/14 02:26:11;;;;;;;;;3.00;0.00;;;;;17.81;100.00;101075.66;5036535;28;45562;-74
2023/10/14 02:28:40;;;;;;;;;4.00;1.00;;;;;17.82;100.00;101068.53;5036999;28;45377;-74
2023/10/14 02:31:16;;;;;;;;;1.33;1.00;;;;;17.87;100.00;101070.22;5037367;28;45565;-74
2023/10/14 02:33:45;;;;;;;;;0.00;0.00;;;;;17.89;100.00;101078.19;5035066;28;46515;-75
2023/10/14 02:36:14;;;;;;;;;2.00;1.00;;;;;17.86;100.00;101073.81;5036889;28;45232;-76
2023/10/14 02:38:40;;;;;;;;;2.67;0.67;;;;;17.87;100.00;101069.34;5037019;28;45362;-74
2023/10/14 02:41:05;;;;;;;;;3.00;0.67;;;;;17.83;100.00;101056.94;5037214;28;45372;-76
2023/10/14 02:43:31;;;;;;;;;3.33;1.00;;;;;17.84;100.00;101058.69;5035876;28;58758;-74
2023/10/14 02:46:00;;;;;;;;;0.33;0.33;;;;;17.77;100.00;101040.09;5036814;28;45475;-76
2023/10/14 02:48:49;;;;;;;;;2.00;1.00;;;;;17.77;100.00;101041.88;5036631;28;45470;-73
2023/10/14 02:51:16;;;;;;;;;1.67;0.67;;;;;17.59;100.00;101027.00;5036981;28;45598;-74
2023/10/14 02:53:42;;;;;;;;;0.67;0.33;;;;;17.55;100.00;101030.59;5036267;28;46773;-75
2023/10/14 02:56:10;;;;;;;;;2.00;1.00;;;;;17.46;100.00;101033.41;5036672;28;45419;-75
2023/10/14 02:58:35;;;;;;;;;2.33;1.00;;;;;17.42;100.00;101048.59;5036315;28;45232;-75
2023/10/14 03:01:01;;;;;;;;;3.00;0.00;;;;;17.46;100.00;101062.75;5033953;28;63841;-76
2023/10/14 03:03:29;;;;;;;;;1.33;0.67;;;;;17.42;100.00;101063.72;5033838;28;70540;-74
2023/10/14 03:05:55;;;;;;;;;6.33;1.00;;;;;17.38;100.00;101051.31;5029427;28;45359;-75
2023/10/14 03:08:21;;;;;;;;;2.33;1.33;;;;;17.39;100.00;101072.66;5036459;28;45354;-75
2023/10/14 03:10:55;;;;;;;;;1.33;1.33;;;;;17.30;100.00;101075.41;5051945;28;45266;-75
2023/10/14 03:13:22;;;;;;;;;1.00;0.00;;;;;17.29;100.00;101093.22;5035621;28;46934;-74
2023/10/14 03:15:52;;;;;;;;;2.00;0.67;;;;;17.27;100.00;101095.03;5036438;28;45497;-74
2023/10/14 03:18:18;;;;;;;;;1.00;1.00;;;;;17.23;100.00;101097.75;5034839;28;45505;-74
2023/10/14 03:23:24;;;;;;;;;3.00;1.00;;;;;17.21;100.00;101110.25;5036161;28;46433;-76
2023/10/14 03:26:01;;;;;;;;;2.00;1.00;;;;;17.21;100.00;101124.47;5034221;28;45463;-74
2023/10/14 03:28:27;;;;;;;;;1.67;0.00;;;;;17.18;100.00;101136.97;5036030;28;45584;-77
2023/10/14 03:30:58;;;;;;;;;2.00;1.00;;;;;17.18;100.00;101145.84;5036036;28;45491;-74
2023/10/14 03:33:27;;;;;;;;;3.00;1.67;;;;;17.15;100.00;101137.91;5035831;28;46686;-75
2023/10/14 03:36:36;;;;;;;;;1.00;0.33;;;;;17.15;100.00;101136.97;5035750;28;45482;-74
2023/10/14 03:38:46;;;;;;;;;1.00;1.00;;;;;17.08;100.00;101132.63;5030174;28;45276;-74
2023/10/14 03:41:19;;;;;;;;;2.00;0.00;;;;;17.07;100.00;101125.53;5036203;28;45672;-74
2023/10/14 03:49:06;;;;;;;;;3.00;1.00;;;;;17.04;100.00;101147.78;5036048;28;45384;-74
2023/10/14 03:51:32;;;;;;;;;2.67;1.00;;;;;16.99;100.00;101152.28;5035501;28;45708;-74
2023/10/14 03:54:06;;;;;;;;;1.00;1.00;;;;;16.99;100.00;101160.28;5035786;28;45955;-75
2023/10/14 03:56:32;;;;;;;;;4.00;1.00;;;;;16.96;100.00;101165.66;5034670;28;45497;-73
2023/10/14 03:59:00;;;;;;;;;2.67;1.00;;;;;16.93;100.00;101171.88;5035150;28;45429;-76
2023/10/14 04:04:14;;;;;;;;;1.67;0.00;;;;;16.88;100.00;101170.16;5035112;28;46361;-74
2023/10/14 04:06:41;;;;;;;;;2.33;0.00;;;;;16.88;100.00;101172.84;5035537;28;45382;-74
2023/10/14 04:09:08;;;;;;;;;2.33;0.33;;;;;16.93;100.00;101168.34;5035801;28;45533;-74
2023/10/14 04:11:38;;;;;;;;;3.00;1.33;;;;;16.89;100.00;101169.28;5035845;28;45785;-74
2023/10/14 04:14:07;;;;;;;;;1.00;1.00;;;;;16.83;100.00;101167.56;5035984;28;45439;-74
2023/10/14 04:19:22;;;;;;;;;7.00;1.00;;;;;16.76;100.00;101172.06;5035729;28;45476;-74
2023/10/14 04:21:53;;;;;;;;;2.00;1.00;;;;;16.76;100.00;101188.06;5035607;28;45359;-76
2023/10/14 04:26:51;;;;;;;;;3.00;0.00;;;;;16.68;100.00;101181.00;5034443;28;45393;-74
2023/10/14 04:29:39;;;;;;;;;3.33;0.00;;;;;16.69;100.00;101196.97;5035616;28;45359;-75
2023/10/14 04:32:25;;;;;;;;;1.00;0.00;;;;;16.65;100.00;101195.22;5038682;28;45466;-73
2023/10/14 04:34:54;;;;;;;;;2.00;1.00;;;;;16.64;100.00;101198.81;5038785;28;47408;-76
2023/10/14 04:37:20;;;;;;;;;2.00;1.00;;;;;16.62;100.00;101197.94;5053596;28;45456;-75
2023/10/14 04:39:46;;;;;;;;;5.33;0.67;;;;;16.58;100.00;101200.63;5038888;28;45502;-75
2023/10/14 04:44:54;;;;;;;;;1.33;1.33;;;;;16.55;100.00;101201.53;5038455;28;46419;-74
2023/10/14 04:47:38;;;;;;;;;2.00;1.00;;;;;16.53;100.00;101203.34;5037667;28;45472;-74
2023/10/14 04:50:11;;;;;;;;;1.33;1.00;;;;;16.52;100.00;101209.56;5038606;28;45354;-73
2023/10/14 04:52:38;;;;;;;;;1.00;1.00;;;;;16.50;100.00;101212.22;5038689;28;45626;-75
2023/10/14 05:00:38;;;;;;;;;2.00;1.00;;;;;16.43;100.00;101220.28;5035368;28;45423;-75
2023/10/14 05:03:05;;;;;;;;;1.00;1.00;;;;;16.39;100.00;101224.75;5036132;28;45347;-74
2023/10/14 05:05:33;;;;;;;;;3.33;1.00;;;;;16.39;100.00;101222.06;5053673;28;48375;-73
2023/10/14 05:07:59;;;;;;;;;2.00;1.00;;;;;16.38;100.00;101225.63;5037920;28;45310;-75
2023/10/14 05:10:28;;;;;;;;;4.33;0.00;;;;;16.34;100.00;101223.88;5038034;28;45549;-74
2023/10/14 05:12:57;;;;;;;;;3.00;0.33;;;;;16.30;100.00;101221.25;5037330;28;45525;-74
2023/10/14 05:15:26;;;;;;;;;1.00;1.00;;;;;16.25;100.00;101218.63;5038092;28;47571;-74
2023/10/14 05:17:52;;;;;;;;;0.67;0.67;;;;;16.21;100.00;101220.44;5037149;28;45492;-73
2023/10/14 05:20:29;;;;;;;;;2.67;1.67;;;;;16.18;100.00;101223.09;5037680;28;45512;-74
2023/10/14 05:22:56;;;;;;;;;3.33;1.00;;;;;16.19;100.00;101224.88;5038035;28;45308;-74
2023/10/14 05:25:27;;;;;;;;;2.00;1.00;;;;;16.17;100.00;101232.00;5036923;28;45884;-76
2023/10/14 05:27:58;;;;;;;;;7.00;1.33;;;;;16.16;100.00;101240.88;5037521;28;45677;-74
2023/10/14 05:30:24;;;;;;;;;1.67;1.67;;;;;16.13;100.00;101248.00;5038042;28;45490;-73
2023/10/14 05:32:51;;;;;;;;;1.00;1.00;;;;;16.11;100.00;101252.47;5037916;28;45297;-74
2023/10/14 05:35:16;;;;;;;;;2.33;2.33;;;;;16.08;100.00;101266.66;5037424;28;46558;-74
2023/10/14 05:37:42;;;;;;;;;3.00;1.67;;;;;16.07;100.00;101259.56;5037587;28;45537;-74
2023/10/14 05:40:14;;;;;;;;;4.67;2.67;;;;;16.01;100.00;101251.59;5037516;28;45336;-76
2023/10/14 05:42:43;;;;;;;;;7.00;1.00;;;;;16.01;100.00;101272.91;5037255;28;45577;-74
2023/10/14 05:45:14;;;;;;;;;1.33;1.33;;;;;16.03;100.00;101276.44;5036716;28;47408;-75
2023/10/14 05:47:41;;;;;;;;;2.67;2.67;;;;;16.10;100.00;101275.53;5037630;28;45234;-74
2023/10/14 05:50:09;;;;;;;;;2.00;2.00;;;;;16.10;100.00;101272.88;5036896;28;45509;-74
2023/10/14 05:52:34;;;;;;;;;3.00;3.00;;;;;16.16;100.00;101272.84;5037108;28;46558;-75
2023/10/14 05:55:05;;;;;;;;;2.33;2.33;;;;;16.21;100.00;101273.72;5036928;28;58312;-74
2023/10/14 05:57:34;;;;;;;;;6.00;3.00;;;;;16.26;100.00;101276.34;5036794;28;45423;-74
2023/10/14 06:00:01;;;;;;;;;4.67;3.67;;;;;16.29;100.00;101284.31;5034205;28;45617;-74
2023/10/14 06:02:26;;;;;;;;;7.67;3.00;;;;;16.34;100.00;101276.31;5037136;28;45446;-75
2023/10/14 06:04:52;;;;;;;;;5.00;2.00;;;;;16.39;100.00;101290.50;5035439;28;62574;-74
2023/10/14 06:07:18;;;;;;;;;6.33;3.00;;;;;16.40;100.00;101286.94;5037061;28;47233;-75
2023/10/14 06:09:45;;;;;;;;;2.00;2.00;;;;;16.45;100.00;101294.00;5036774;28;45516;-74
2023/10/14 06:12:14;;;;;;;;;1.00;1.00;;;;;16.48;100.00;101293.13;5037330;28;45322;-74
2023/10/14 06:14:43;;;;;;;;;7.67;2.00;;;;;16.49;100.00;101295.75;5036721;28;46558;-74
2023/10/14 06:17:09;;;;;;;;;3.33;0.00;;;;;16.45;100.00;101315.31;5030524;28;45661;-78
2023/10/14 06:19:36;;;;;;;;;3.67;1.00;;;;;16.45;100.00;101311.78;5026746;28;45621;-78
2023/10/14 06:22:02;;;;;;;;;3.67;2.00;;;;;16.43;100.00;101321.56;5048033;28;47128;-75
2023/10/14 06:24:28;;;;;;;;;2.67;2.00;;;;;16.41;100.00;101329.59;5035140;28;46498;-75
2023/10/14 06:27:07;;;;;;;;;3.33;2.00;;;;;16.37;100.00;101338.47;5033973;28;45629;-75
2023/10/14 06:29:32;;;;;;;;;7.33;2.67;;;;;16.36;100.00;101341.16;5037948;28;45473;-75
2023/10/14 06:32:01;;;;;;;;;3.00;1.33;;;;;16.27;100.00;101338.53;5035984;28;45542;-76
2023/10/14 06:34:27;;;;;;;;;3.67;3.00;;;;;16.24;100.00;101345.66;5033820;28;47425;-75
2023/10/14 06:36:53;;;;;;;;;4.00;3.00;;;;;16.18;100.00;101345.66;5035608;28;45295;-76
2023/10/14 06:39:26;;;;;;;;;2.00;2.00;;;;;16.15;100.00;101344.81;5035883;28;45523;-75
2023/10/14 06:41:55;;;;;;;;;3.67;1.00;;;;;16.10;100.00;101354.59;5035763;28;45754;-75
2023/10/14 06:44:26;;;;;;;;;4.00;2.00;;;;;16.09;100.00;101356.38;5036089;28;46740;-77
2023/10/14 06:46:56;;;;;;;;;5.00;2.00;;;;;16.05;100.00;101351.94;5034051;28;45504;-75
2023/10/14 06:49:23;;;;;;;;;9.33;3.00;;;;;16.08;100.00;101361.69;5036063;28;45514;-77
2023/10/14 06:51:51;;;;;;;;;2.67;2.00;;;;;16.07;100.00;101357.25;5033899;28;45534;-75
2023/10/14 06:54:25;;;;;;;;;4.33;2.00;;;;;16.00;100.00;101363.50;5035452;28;47791;-75
2023/10/14 06:56:51;;;;;;;;;5.00;3.00;;;;;15.94;100.00;101372.38;5036428;28;45419;-75
2023/10/14 06:59:16;;;;;;;;;3.00;1.00;;;;;15.94;100.00;101381.25;5035752;28;45571;-78
2023/10/14 07:01:43;;;;;;;;;1.67;1.67;;;;;15.94;100.00;101380.38;5034883;28;59300;-75
2023/10/14 07:04:12;;;;;;;;;6.00;2.00;;;;;15.91;100.00;101383.03;5036135;28;46889;-75
2023/10/14 07:06:37;;;;;;;;;8.33;2.00;;;;;15.94;100.00;101388.38;5035282;28;46114;-75
2023/10/14 07:09:07;;;;;;;;;3.33;1.00;;;;;16.00;100.00;101396.34;5036229;28;45397;-75
2023/10/14 07:11:33;;;;;;;;;4.00;3.00;;;;;16.05;100.00;101401.66;5036058;28;45580;-77
2023/10/14 07:13:58;;;;;;;;;2.00;1.00;;;;;16.07;100.00;101405.19;5035308;28;68365;-75
2023/10/14 07:16:24;;;;;;;;;0.00;0.00;;;;;16.07;100.00;101410.53;5034610;28;65819;-75
2023/10/14 07:18:49;;;;;;;;;4.00;1.00;;;;;16.06;100.00;101412.31;5032045;28;45440;-75
2023/10/14 07:21:15;;;;;;;;;6.33;1.00;;;;;16.02;100.00;101409.66;5034775;28;62075;-77
2023/10/14 07:23:41;;;;;;;;;2.00;2.00;;;;;16.01;100.00;101410.53;5035281;28;47132;-74
2023/10/14 07:26:11;;;;;;;;;3.33;2.00;;;;;15.96;100.00;101414.09;5034293;28;45474;-75
2023/10/14 07:28:42;;;;;;;;;3.00;1.67;;;;;15.95;100.00;101416.78;5035050;28;45541;-75
2023/10/14 07:31:11;;;;;;;;;1.00;1.00;;;;;15.98;100.00;101422.09;5035514;28;45522;-78
2023/10/14 07:33:38;;;;;;;;;6.00;1.00;;;;;16.04;100.00;101434.53;5034189;28;47372;-74
2023/10/14 07:36:06;;;;;;;;;2.67;2.00;;;;;16.06;100.00;101433.63;5034700;28;45363;-76
2023/10/14 07:38:33;;;;;;;;;2.67;2.67;;;;;16.11;100.00;101429.16;5033251;28;45512;-75
2023/10/14 07:41:01;;;;;;;;;3.33;2.00;;;;;16.18;100.00;101424.69;5034541;28;45482;-75
2023/10/14 07:43:26;;;;;;;;;2.33;2.00;;;;;16.16;100.00;101426.50;5035318;28;46383;-76
2023/10/14 07:45:52;;;;;;;;;2.00;2.00;;;;;16.18;100.00;101433.56;5033786;28;45531;-76
2023/10/14 07:48:19;;;;;;;;;2.33;1.00;;;;;16.23;100.00;101445.13;5034232;28;45552;-75
2023/10/14 07:50:47;;;;;;;;;3.67;2.33;;;;;16.22;100.00;101443.34;5029070;28;45611;-78
2023/10/14 07:53:14;;;;;;;;;1.67;1.67;;;;;16.22;100.00;101443.34;5024210;28;47578;-77
2023/10/14 07:55:40;;;;;;;;;7.00;1.00;;;;;16.20;100.00;101445.13;5021925;28;45219;-77
2023/10/14 07:58:08;;;;;;;;;7.00;1.00;;;;;16.24;100.00;101454.00;5016091;28;45637;-76
2023/10/14 08:00:39;;;;;;;;;2.00;1.00;;;;;16.24;100.00;101468.22;5018045;28;45552;-76
2023/10/14 08:03:09;;;;;;;;;4.00;3.00;;;;;16.23;100.00;101466.44;5027754;28;47536;-78
2023/10/14 08:05:38;;;;;;;;;3.67;1.00;;;;;16.23;100.00;101466.44;5038277;28;45370;-76
2023/10/14 08:08:09;;;;;;;;;3.00;1.33;;;;;16.37;100.00;101462.88;5038213;28;45526;-74
2023/10/14 08:10:45;;;;;;;;;1.00;1.00;;;;;16.56;100.00;101463.69;5035281;28;45478;-75
2023/10/14 08:13:14;;;;;;;;;2.67;1.00;;;;;16.57;100.00;101462.81;5035438;28;47052;-75
2023/10/14 08:15:40;;;;;;;;;2.33;1.00;;;;;16.59;100.00;101464.56;5038452;28;45323;-75
2023/10/14 08:18:06;;;;;;;;;4.00;2.67;;;;;16.63;100.00;101471.66;5157578;22;45261;-75
2023/10/14 08:20:32;;;;;;;;;1.33;1.00;;;;;16.70;100.00;101473.41;5038081;28;45296;-75
2023/10/14 08:22:58;;;;;;;;;2.67;1.00;;;;;16.75;100.00;101476.09;5036338;28;47552;-75
2023/10/14 08:25:28;;;;;;;;;2.00;1.00;;;;;16.80;100.00;101466.28;5030334;28;45465;-75
2023/10/14 08:27:54;;;;;;;;;1.00;1.00;;;;;16.85;100.00;101475.16;5026899;28;45390;-76
2023/10/14 08:30:24;;;;;;;;;1.00;1.00;;;;;16.92;100.00;101468.00;5031010;28;45280;-76
2023/10/14 08:32:50;;;;;;;;;3.00;1.00;;;;;16.94;100.00;101468.91;5033763;28;47440;-75
2023/10/14 08:35:15;;;;;;;;;1.00;1.00;;;;;17.00;100.00;101472.41;5036505;28;45557;-74
2023/10/14 08:37:43;;;;;;;;;2.33;2.00;;;;;17.06;100.00;101466.16;5036380;28;45408;-76
2023/10/14 08:40:16;;;;;;;;;2.67;1.00;;;;;17.14;100.00;101477.66;5047362;28;45366;-76
2023/10/14 08:42:54;;;;;;;;;3.67;1.00;;;;;17.15;100.00;101473.22;5036922;28;45748;-76
2023/10/14 08:45:21;;;;;;;;;0.00;0.00;;;;;17.17;100.00;101475.00;5035224;28;45515;-76
2023/10/14 08:47:50;;;;;;;;;4.00;1.00;;;;;17.21;100.00;101483.88;5039516;28;45439;-77
2023/10/14 08:50:18;;;;;;;;;2.00;1.00;;;;;17.25;100.00;101478.47;5035511;28;45478;-75
2023/10/14 08:52:45;;;;;;;;;2.00;0.67;;;;;17.24;100.00;101487.38;5042736;28;46531;-75
2023/10/14 08:55:13;;;;;;;;;4.67;1.00;;;;;17.27;100.00;101489.19;5053928;28;45553;-76
2023/10/14 08:57:39;;;;;;;;;4.00;1.00;;;;;17.34;100.00;101482.88;5035847;28;45502;-75
2023/10/14 09:00:05;;;;;;;;;2.00;1.00;;;;;17.47;100.00;101483.69;5032825;28;45579;-76
2023/10/14 09:02:31;;;;;;;;;5.33;1.00;;;;;17.63;100.00;101480.03;5037940;28;46754;-75
2023/10/14 09:04:59;;;;;;;;;4.33;1.00;;;;;17.80;100.00;101485.25;5038033;28;45384;-75
2023/10/14 09:07:24;;;;;;;;;0.00;0.00;;;;;17.90;100.00;101476.28;5038349;28;45481;-75
2023/10/14 09:09:53;;;;;;;;;2.67;1.00;;;;;18.03;100.00;101491.28;5041933;28;45367;-76
2023/10/14 09:12:18;;;;;;;;;3.00;1.33;;;;;18.14;100.00;101495.66;5065507;28;48165;-75
2023/10/14 09:14:43;;;;;;;;;5.33;1.00;;;;;18.23;100.00;101490.22;5037512;28;67735;-75
2023/10/14 09:17:10;;;;;;;;;5.00;0.67;;;;;18.27;100.00;101492.84;5036085;28;45498;-75
2023/10/14 09:19:45;;;;;;;;;1.00;1.00;;;;;18.35;100.00;101491.88;5044215;28;47114;-76
2023/10/14 09:22:27;;;;;;;;;4.00;1.00;;;;;18.40;100.00;101492.72;5044779;28;46628;-77
2023/10/14 09:24:59;;;;;;;;;4.33;1.67;;;;;18.46;100.00;101492.63;5036883;28;45467;-75
2023/10/14 09:27:26;;;;;;;;;3.67;1.00;;;;;18.46;100.00;101492.63;5059137;28;45354;-76
2023/10/14 09:29:56;;;;;;;;;2.00;1.00;;;;;18.47;100.00;101492.63;5044040;28;45535;-77
2023/10/14 09:32:22;;;;;;;;;1.67;1.00;;;;;18.50;100.00;101494.38;5039185;28;46429;-76
2023/10/14 09:34:51;;;;;;;;;4.33;0.33;;;;;18.50;100.00;101503.28;5038270;28;45466;-75
2023/10/14 09:37:17;;;;;;;;;4.00;1.00;;;;;18.51;100.00;101502.38;5047894;28;45565;-76
2023/10/14 09:39:48;;;;;;;;;2.67;1.00;;;;;18.55;100.00;101503.25;5036466;28;45298;-76
2023/10/14 09:42:15;;;;;;;;;3.00;2.00;;;;;18.62;100.00;101498.69;5035096;28;46563;-76
2023/10/14 09:44:45;;;;;;;;;2.00;1.00;;;;;18.66;100.00;101505.78;5038225;28;45310;-76
2023/10/14 09:47:13;;;;;;;;;1.67;1.67;;;;;18.68;100.00;101507.56;5036844;28;45584;-77
2023/10/14 09:49:39;;;;;;;;;1.00;1.00;;;;;18.70;100.00;101505.78;5037663;28;45644;-76
2023/10/14 09:52:06;;;;;;;;;2.00;0.00;;;;;18.73;100.00;101504.84;5026021;28;47309;-76
2023/10/14 09:54:31;;;;;;;;;3.67;0.33;;;;;18.77;100.00;101511.94;5028517;28;45561;-75
2023/10/14 09:57:00;;;;;;;;;2.00;0.00;;;;;18.78;100.00;101511.03;5035116;28;45583;-76
2023/10/14 09:59:28;;;;;;;;;1.00;1.00;;;;;18.73;100.00;101513.75;5034831;28;45587;-76
2023/10/14 10:01:53;;;;;;;;;3.00;2.00;;;;;18.82;100.00;101510.09;5037358;28;46703;-77
2023/10/14 10:04:22;;;;;;;;;1.00;1.00;;;;;18.86;100.00;101517.19;5037698;28;45417;-71
2023/10/14 10:07:04;;;;;;;;;1.00;1.00;;;;;18.88;100.00;101509.13;5033949;28;45346;-71
2023/10/14 10:10:01;;;;;;;;;5.67;1.00;;;;;18.94;100.00;101523.31;5062191;28;45425;-71
2023/10/14 10:12:29;;;;;;;;;3.33;2.00;;;;;19.02;100.00;101521.44;5035137;28;46314;-70
2023/10/14 10:14:58;;;;;;;;;1.67;1.67;;;;;19.05;100.00;101523.19;5037186;28;45527;-70
2023/10/14 10:17:26;;;;;;;;;4.33;1.00;;;;;19.10;100.00;101522.22;5033578;28;45412;-71
2023/10/14 10:19:58;;;;;;;;;3.33;1.67;;;;;19.15;100.00;101532.84;5036879;28;45570;-71
2023/10/14 10:22:25;;;;;;;;;3.00;2.00;;;;;19.21;100.00;101532.78;5069195;28;45582;-70
2023/10/14 10:24:53;;;;;;;;;1.00;1.00;;;;;19.22;100.00;101539.91;5037368;28;45375;-70
2023/10/14 10:27:20;;;;;;;;;6.33;2.00;;;;;19.25;100.00;101547.03;5042434;28;45570;-70
2023/10/14 10:29:57;;;;;;;;;1.00;1.00;;;;;19.26;100.00;101551.47;5036950;28;50177;-70
2023/10/14 10:32:35;;;;;;;;;1.00;1.00;;;;;19.24;100.00;101564.88;5035829;28;45569;-71
2023/10/14 10:35:06;;;;;;;;;4.33;1.33;;;;;19.20;100.00;101564.94;5036963;28;45518;-71
2023/10/14 10:37:33;;;;;;;;;1.67;1.00;;;;;19.20;100.00;101554.22;5037187;28;45406;-72
2023/10/14 10:39:59;;;;;;;;;4.67;1.00;;;;;19.18;100.00;101566.75;5037269;28;45628;-70
2023/10/14 10:42:25;;;;;;;;;3.00;2.00;;;;;19.13;100.00;101560.56;5035964;28;71211;-71
2023/10/14 10:44:50;;;;;;;;;4.00;1.67;;;;;19.13;100.00;101563.25;5037110;28;45459;-70
2023/10/14 10:47:16;;;;;;;;;0.00;0.00;;;;;19.15;100.00;101561.44;5036952;28;45339;-71
2023/10/14 10:50:02;;;;;;;;;5.00;2.00;;;;;19.15;100.00;101562.31;5036767;28;45454;-70
2023/10/14 10:52:28;;;;;;;;;1.00;1.00;;;;;19.21;100.00;101569.38;5028334;28;46556;-70
2023/10/14 10:54:55;;;;;;;;;1.33;1.33;;;;;19.24;100.00;101564.88;5039855;28;45698;-70
2023/10/14 10:57:21;;;;;;;;;5.00;2.67;;;;;19.25;100.00;101569.31;5033412;28;45494;-72
2023/10/14 10:59:46;;;;;;;;;0.00;0.00;;;;;19.23;100.00;101571.16;5033202;28;45466;-71
2023/10/14 11:02:18;;;;;;;;;3.67;2.67;;;;;19.17;100.00;101563.16;5028888;28;46241;-70
2023/10/14 11:04:43;;;;;;;;;1.00;1.00;;;;;19.13;100.00;101572.16;5036425;28;45505;-70
2023/10/14 11:07:10;;;;;;;;;4.00;0.67;;;;;19.08;100.00;101574.00;5045861;28;45625;-70
2023/10/14 11:09:42;;;;;;;;;1.00;1.00;;;;;19.04;100.00;101574.94;5036843;28;45525;-70
2023/10/14 11:12:09;;;;;;;;;1.00;1.00;;;;;19.02;100.00;101566.06;5030701;28;47478;-72
2023/10/14 11:14:34;;;;;;;;;0.00;0.00;;;;;18.99;100.00;101576.78;5046678;28;45351;-72
2023/10/14 11:16:59;;;;;;;;;1.00;0.00;;;;;18.95;100.00;101575.03;5044702;28;45517;-70
2023/10/14 11:19:26;;;;;;;;;4.33;1.67;;;;;18.90;100.00;101576.88;5067941;28;59913;-70
2023/10/14 11:21:52;;;;;;;;;2.33;0.33;;;;;18.82;100.00;101587.69;5036373;28;46914;-71
2023/10/14 11:24:18;;;;;;;;;3.00;0.00;;;;;18.80;100.00;101585.03;5069175;28;45443;-70
2023/10/14 11:26:45;;;;;;;;;0.00;0.00;;;;;18.76;100.00;101580.63;5042854;28;45586;-70
2023/10/14 11:29:11;;;;;;;;;3.33;0.67;;;;;18.71;100.00;101582.44;5036539;28;45446;-71
2023/10/14 11:31:39;;;;;;;;;1.33;1.33;;;;;18.72;100.00;101586.91;5036268;28;45788;-70
2023/10/14 11:34:05;;;;;;;;;2.00;0.33;;;;;18.72;100.00;101580.66;5035132;28;45502;-70
2023/10/14 11:36:30;;;;;;;;;3.00;1.33;;;;;18.72;100.00;101583.34;5045265;28;45398;-69
2023/10/14 11:38:58;;;;;;;;;1.67;1.67;;;;;18.73;100.00;101580.63;5035014;28;45387;-69
2023/10/14 11:41:25;;;;;;;;;3.00;1.33;;;;;18.73;100.00;101582.44;5036399;28;46428;-69
2023/10/14 11:43:51;;;;;;;;;7.00;2.00;;;;;18.86;100.00;101580.53;5037613;28;45387;-70
2023/10/14 11:46:17;;;;;;;;;1.67;1.67;;;;;18.90;100.00;101575.09;5041557;28;45268;-70
2023/10/14 11:48:47;;;;;;;;;3.67;1.67;;;;;18.98;100.00;101588.41;5036514;28;45613;-71
2023/10/14 11:51:19;;;;;;;;;1.67;1.00;;;;;19.03;100.00;101586.56;5035993;28;45548;-71
2023/10/14 11:53:46;;;;;;;;;2.33;2.00;;;;;19.17;100.00;101586.38;5036915;28;45356;-70
2023/10/14 11:56:14;;;;;;;;;3.00;1.00;;;;;19.27;100.00;101585.34;5048089;28;45343;-70
2023/10/14 11:58:40;;;;;;;;;1.00;1.00;;;;;19.36;100.00;101586.13;5036293;28;45384;-70
2023/10/14 12:01:06;;;;;;;;;4.33;1.00;;;;;19.47;100.00;101588.66;5031854;28;45610;-69